Yuedian 58 — BYFE — position and weather

sailwx.info

Track history (hours):
 
Tides and Currents Weather Stations Pressure Air Temp Water Temp Dewpoint Dewpoint Depression Visibility Wind Speed Wind Dir Waves Ship Positions

Yuedian 58

Last reported at 2016-Feb-11 17:34 UTC. Time now 2016-Feb-12 07:47 UTC.
Position N 22°09' E 113°48'.

Length 190 m; draft 6.8 m.

Type: Ship. MMSI: 414008000.

Date/timePositionNaut miles runAvg speedWind from/ knotsBaromVisibWave heightAir tempDewpointWater temp
2016-Feb-11 17:34N 22°09' E 113°48'1312.6
2016-Feb-11 16:33N 22°22' E 113°47'2311.3
2016-Feb-11 14:30N 22°44' E 113°40'1 0.1
2016-Feb-11 08:31N 22°45' E 113°40'0 0.0
2016-Feb-11 07:07N 22°45' E 113°40'0 0.0
2016-Feb-11 06:31N 22°45' E 113°40'0 0.0
2016-Feb-11 05:31N 22°45' E 113°40'0 0.0
2016-Feb-11 03:31N 22°45' E 113°40'0 0.0
2016-Feb-11 02:25N 22°45' E 113°40'0 0.0
2016-Feb-10 23:13N 22°45' E 113°40'0 0.0
2016-Feb-10 21:33N 22°45' E 113°40'0 0.0
2016-Feb-10 20:24N 22°45' E 113°40'0 0.0
2016-Feb-10 19:30N 22°45' E 113°40'0 0.0
2016-Feb-10 18:30N 22°45' E 113°40'0 0.0
2016-Feb-10 17:24N 22°45' E 113°40'0 0.0
2016-Feb-10 16:30N 22°45' E 113°40'0 0.0
2016-Feb-10 15:24N 22°45' E 113°40'0 0.0
2016-Feb-10 13:27N 22°45' E 113°40'0 0.0
2016-Feb-10 11:26N 22°45' E 113°40'0 0.0
2016-Feb-10 06:20N 22°45' E 113°40'0 0.0
2016-Feb-10 05:14N 22°45' E 113°40'0 0.0
2016-Feb-10 04:26N 22°45' E 113°40'0 0.0
2016-Feb-10 03:32N 22°45' E 113°40'0 0.0
2016-Feb-10 02:26N 22°45' E 113°40'0 0.0
2016-Feb-10 01:20N 22°45' E 113°40'0 0.0
2016-Feb-10 00:26N 22°45' E 113°40'0 0.0
2016-Feb-09 20:32N 22°45' E 113°40'0 0.0
2016-Feb-09 19:32N 22°45' E 113°40'0 0.0
2016-Feb-09 13:14N 22°45' E 113°40'0 0.0
2016-Feb-09 11:26N 22°45' E 113°40'0 0.0
2016-Feb-09 03:32N 22°44' E 113°40'11 8.4
2016-Feb-09 02:13N 22°34' E 113°43'912.5
2016-Feb-09 01:32N 22°26' E 113°45'1211.9
2016-Feb-09 00:33N 22°14' E 113°49'11 1.3
2016-Feb-08 16:23N 22°04' E 113°53'275 5.9
2016-Feb-06 17:29N 23°54' E 118°26'5213.2
2016-Feb-06 13:33N 24°29' E 119°08'  
2016-Feb-03 18:18N 37°35' E 122°58'911.6
2016-Feb-03 17:33N 37°39' E 122°49'1211.7
2016-Feb-03 16:33N 37°45' E 122°36'1211.9
2016-Feb-03 15:33N 37°51' E 122°23'21111.7
2016-Feb-02 21:33N 38°54' E 118°06'1010.1
2016-Feb-02 20:33N 38°57' E 117°54'6 4.5
2016-Feb-02 19:18N 38°58' E 117°47'0 0.0
2016-Feb-02 18:25N 38°58' E 117°47'0 0.0
2016-Feb-02 17:31N 38°58' E 117°47'0 0.0
2016-Feb-02 16:31N 38°58' E 117°47'0 0.0
2016-Feb-02 15:31N 38°58' E 117°47'0 0.0
2016-Feb-02 14:28N 38°58' E 117°47'0 0.0
2016-Feb-02 13:30N 38°58' E 117°47'0 0.0
2016-Feb-02 12:30N 38°58' E 117°47'0 0.0
2016-Feb-02 11:30N 38°58' E 117°47'0 0.0
2016-Feb-02 10:30N 38°58' E 117°47'0 0.0
2016-Feb-02 09:33N 38°58' E 117°47'0 0.0
2016-Feb-02 08:32N 38°58' E 117°47'0 0.0
2016-Feb-02 07:32N 38°58' E 117°47'0 0.0
2016-Feb-02 06:32N 38°58' E 117°47'0 0.0
2016-Feb-02 05:32N 38°58' E 117°47'0 0.0
2016-Feb-02 03:32N 38°58' E 117°47'0 0.0
2016-Feb-02 02:32N 38°58' E 117°47'0 0.0
2016-Feb-02 01:32N 38°58' E 117°47'0 0.0
2016-Feb-02 00:32N 38°58' E 117°47'0 0.0
2016-Feb-01 22:32N 38°58' E 117°47'0 0.0
2016-Feb-01 21:20N 38°58' E 117°47'0 0.0
2016-Feb-01 20:26N 38°58' E 117°47'0 0.0
2016-Feb-01 19:26N 38°58' E 117°47'0 0.0
2016-Feb-01 18:20N 38°58' E 117°47'  
Track history (hours):
 
Tides and Currents Weather Stations Pressure Air Temp Water Temp Dewpoint Dewpoint Depression Visibility Wind Speed Wind Dir Waves Ship Positions

Yuedian 58

Last reported at 2016-Feb-11 17:34 UTC. Time now 2016-Feb-12 07:47 UTC.
Position N 22°09' E 113°48'.

Length 190 m; draft 6.8 m.

Type: Ship. MMSI: 414008000.

Date/timePositionNaut miles runAvg speedWind from/ knotsBaromVisibWave heightAir tempDewpointWater temp
2016-Feb-11 17:34N 22°09' E 113°48'1312.6
2016-Feb-11 16:33N 22°22' E 113°47'2311.3
2016-Feb-11 14:30N 22°44' E 113°40'1 0.1
2016-Feb-11 08:31N 22°45' E 113°40'0 0.0
2016-Feb-11 07:07N 22°45' E 113°40'0 0.0
2016-Feb-11 06:31N 22°45' E 113°40'0 0.0
2016-Feb-11 05:31N 22°45' E 113°40'0 0.0
2016-Feb-11 03:31N 22°45' E 113°40'0 0.0
2016-Feb-11 02:25N 22°45' E 113°40'0 0.0
2016-Feb-10 23:13N 22°45' E 113°40'0 0.0
2016-Feb-10 21:33N 22°45' E 113°40'0 0.0
2016-Feb-10 20:24N 22°45' E 113°40'0 0.0
2016-Feb-10 19:30N 22°45' E 113°40'0 0.0
2016-Feb-10 18:30N 22°45' E 113°40'0 0.0
2016-Feb-10 17:24N 22°45' E 113°40'0 0.0
2016-Feb-10 16:30N 22°45' E 113°40'0 0.0
2016-Feb-10 15:24N 22°45' E 113°40'0 0.0
2016-Feb-10 13:27N 22°45' E 113°40'0 0.0
2016-Feb-10 11:26N 22°45' E 113°40'0 0.0
2016-Feb-10 06:20N 22°45' E 113°40'0 0.0
2016-Feb-10 05:14N 22°45' E 113°40'0 0.0
2016-Feb-10 04:26N 22°45' E 113°40'0 0.0
2016-Feb-10 03:32N 22°45' E 113°40'0 0.0
2016-Feb-10 02:26N 22°45' E 113°40'0 0.0
2016-Feb-10 01:20N 22°45' E 113°40'0 0.0
2016-Feb-10 00:26N 22°45' E 113°40'0 0.0
2016-Feb-09 20:32N 22°45' E 113°40'0 0.0
2016-Feb-09 19:32N 22°45' E 113°40'0 0.0
2016-Feb-09 13:14N 22°45' E 113°40'0 0.0
2016-Feb-09 11:26N 22°45' E 113°40'0 0.0
2016-Feb-09 03:32N 22°44' E 113°40'11 8.4
2016-Feb-09 02:13N 22°34' E 113°43'912.5
2016-Feb-09 01:32N 22°26' E 113°45'1211.9
2016-Feb-09 00:33N 22°14' E 113°49'11 1.3
2016-Feb-08 16:23N 22°04' E 113°53'275 5.9
2016-Feb-06 17:29N 23°54' E 118°26'5213.2
2016-Feb-06 13:33N 24°29' E 119°08'  
2016-Feb-03 18:18N 37°35' E 122°58'911.6
2016-Feb-03 17:33N 37°39' E 122°49'1211.7
2016-Feb-03 16:33N 37°45' E 122°36'1211.9
2016-Feb-03 15:33N 37°51' E 122°23'21111.7
2016-Feb-02 21:33N 38°54' E 118°06'1010.1
2016-Feb-02 20:33N 38°57' E 117°54'6 4.5
2016-Feb-02 19:18N 38°58' E 117°47'0 0.0
2016-Feb-02 18:25N 38°58' E 117°47'0 0.0
2016-Feb-02 17:31N 38°58' E 117°47'0 0.0
2016-Feb-02 16:31N 38°58' E 117°47'0 0.0
2016-Feb-02 15:31N 38°58' E 117°47'0 0.0
2016-Feb-02 14:28N 38°58' E 117°47'0 0.0
2016-Feb-02 13:30N 38°58' E 117°47'0 0.0
2016-Feb-02 12:30N 38°58' E 117°47'0 0.0
2016-Feb-02 11:30N 38°58' E 117°47'0 0.0
2016-Feb-02 10:30N 38°58' E 117°47'0 0.0
2016-Feb-02 09:33N 38°58' E 117°47'0 0.0
2016-Feb-02 08:32N 38°58' E 117°47'0 0.0
2016-Feb-02 07:32N 38°58' E 117°47'0 0.0
2016-Feb-02 06:32N 38°58' E 117°47'0 0.0
2016-Feb-02 05:32N 38°58' E 117°47'0 0.0
2016-Feb-02 03:32N 38°58' E 117°47'0 0.0
2016-Feb-02 02:32N 38°58' E 117°47'0 0.0
2016-Feb-02 01:32N 38°58' E 117°47'0 0.0
2016-Feb-02 00:32N 38°58' E 117°47'0 0.0
2016-Feb-01 22:32N 38°58' E 117°47'0 0.0
2016-Feb-01 21:20N 38°58' E 117°47'0 0.0
2016-Feb-01 20:26N 38°58' E 117°47'0 0.0
2016-Feb-01 19:26N 38°58' E 117°47'0 0.0
2016-Feb-01 18:20N 38°58' E 117°47'  

Dump ship's entire track history